Time;durP1;ratioP1;P1;durP2;ratioP2;P2;SDS_P1;SDS_P2;PMS_P1;PMS_P2;Temp;Humidity;BMP_temperature;BMP_pressure;BME280_temperature;BME280_humidity;BME280_pressure;Samples;Min_cycle;Max_cycle;Signal;HPM_P1;HPM_P2
2021/12/06 00:00:19;;;;;;;217.73;201.26;;;;;;;18.96;49.23;99752.39;;;;-52
2021/12/06 00:03:19;;;;;;;239.40;221.38;;;;;;;18.94;49.25;99749.22;;;;-52
2021/12/06 00:06:19;;;;;;;229.67;212.33;;;;;;;18.92;49.28;99749.80;;;;-52
2021/12/06 00:09:19;;;;;;;271.97;251.34;;;;;;;18.91;49.22;99749.58;;;;-52
2021/12/06 00:12:20;;;;;;;246.65;228.19;;;;;;;18.89;49.22;99752.17;;;;-52
2021/12/06 00:15:19;;;;;;;267.12;246.77;;;;;;;18.87;49.24;99754.20;;;;-52
2021/12/06 00:18:19;;;;;;;319.53;294.60;;;;;;;18.86;49.28;99753.88;;;;-51
2021/12/06 00:21:19;;;;;;;331.53;305.29;;;;;;;18.84;49.22;99756.98;;;;-52
2021/12/06 00:24:19;;;;;;;334.87;308.34;;;;;;;18.83;49.26;99761.61;;;;-52
2021/12/06 00:27:19;;;;;;;339.55;312.59;;;;;;;18.81;49.29;99764.54;;;;-52
2021/12/06 00:30:19;;;;;;;364.34;334.90;;;;;;;18.79;49.31;99764.53;;;;-52
2021/12/06 00:49:19;;;;;;;555.71;508.87;;;;;;;18.69;49.34;99770.03;;;;-51
2021/12/06 00:52:19;;;;;;;419.59;384.58;;;;;;;18.68;49.36;99774.67;;;;-52
2021/12/06 00:55:19;;;;;;;326.49;300.63;;;;;;;18.67;49.35;99779.45;;;;-52
2021/12/06 00:58:19;;;;;;;459.37;421.29;;;;;;;18.66;49.38;99784.58;;;;-53
2021/12/06 01:01:19;;;;;;;343.09;315.66;;;;;;;18.63;49.35;99786.19;;;;-52
2021/12/06 01:04:19;;;;;;;488.21;447.43;;;;;;;18.62;49.36;99794.64;;;;-51
2021/12/06 01:07:19;;;;;;;539.86;493.69;;;;;;;18.61;49.38;99802.17;;;;-52
2021/12/06 01:10:19;;;;;;;251.71;232.56;;;;;;;18.60;49.41;99803.01;;;;-52
2021/12/06 01:13:19;;;;;;;521.04;476.51;;;;;;;18.58;49.45;99802.11;;;;-52
2021/12/06 01:16:19;;;;;;;530.11;484.97;;;;;;;18.57;49.42;99804.53;;;;-52
2021/12/06 01:19:19;;;;;;;336.93;310.05;;;;;;;18.56;49.40;99806.50;;;;-52
2021/12/06 01:22:28;;;;;;;483.12;442.23;;;;;;;18.55;49.42;99813.05;;;;-51
2021/12/06 01:25:29;;;;;;;262.05;242.19;;;;;;;18.53;49.43;99818.10;;;;-52
2021/12/06 01:28:46;;;;;;;239.11;221.06;;;;;;;18.52;49.42;99820.77;;;;-51
2021/12/06 01:31:35;;;;;;;237.22;219.34;;;;;;;18.51;49.43;99824.58;;;;-52
2021/12/06 01:40:21;;;;;;;298.45;275.33;;;;;;;18.46;49.48;99838.12;;;;-52
2021/12/06 01:43:19;;;;;;;569.09;521.16;;;;;;;18.46;49.48;99843.64;;;;-51
2021/12/06 01:46:19;;;;;;;370.27;340.80;;;;;;;18.44;49.45;99851.52;;;;-52
2021/12/06 01:49:19;;;;;;;211.65;195.72;;;;;;;18.43;49.47;99862.56;;;;-52
2021/12/06 01:52:19;;;;;;;189.90;175.72;;;;;;;18.43;49.46;99871.73;;;;-52
2021/12/06 01:55:19;;;;;;;222.95;206.20;;;;;;;18.41;49.50;99873.41;;;;-52
2021/12/06 01:58:19;;;;;;;244.00;225.63;;;;;;;18.40;49.49;99874.62;;;;-52
2021/12/06 02:01:19;;;;;;;210.31;194.60;;;;;;;18.39;49.48;99872.37;;;;-51
2021/12/06 02:04:19;;;;;;;227.99;210.84;;;;;;;18.37;49.49;99875.03;;;;-52
2021/12/06 02:07:19;;;;;;;269.20;248.68;;;;;;;18.37;49.51;99880.16;;;;-52
2021/12/06 02:10:19;;;;;;;524.47;481.03;;;;;;;18.34;49.48;99884.94;;;;-51
2021/12/06 02:13:19;;;;;;;444.78;407.95;;;;;;;18.35;49.51;99888.02;;;;-52
2021/12/06 02:16:26;;;;;;;252.80;233.45;;;;;;;18.33;49.53;99889.64;;;;-51
2021/12/06 02:19:19;;;;;;;190.20;175.96;;;;;;;18.32;49.54;99891.97;;;;-52
2021/12/06 02:22:19;;;;;;;170.41;157.91;;;;;;;18.30;49.55;99889.53;;;;-52
2021/12/06 02:25:19;;;;;;;181.51;168.05;;;;;;;18.30;49.52;99891.31;;;;-52
2021/12/06 02:28:19;;;;;;;197.49;182.71;;;;;;;18.28;49.57;99895.36;;;;-52
2021/12/06 02:31:19;;;;;;;160.09;148.37;;;;;;;18.27;49.55;99902.27;;;;-50
2021/12/06 02:34:19;;;;;;;169.49;156.89;;;;;;;18.25;49.59;99907.53;;;;-50
2021/12/06 02:37:19;;;;;;;168.43;156.04;;;;;;;18.25;49.56;99908.19;;;;-50
2021/12/06 02:40:19;;;;;;;169.48;157.09;;;;;;;18.25;49.55;99907.63;;;;-50
2021/12/06 02:43:19;;;;;;;181.11;167.73;;;;;;;18.22;49.56;99910.95;;;;-50
2021/12/06 02:46:19;;;;;;;195.79;181.29;;;;;;;18.22;49.57;99903.97;;;;-50
2021/12/06 02:49:19;;;;;;;200.95;185.89;;;;;;;18.21;49.55;99904.13;;;;-50
2021/12/06 02:52:19;;;;;;;196.25;181.63;;;;;;;18.21;49.56;99908.98;;;;-50
2021/12/06 02:55:34;;;;;;;202.73;187.59;;;;;;;18.19;49.59;99912.55;;;;-50
2021/12/06 02:58:32;;;;;;;181.07;167.65;;;;;;;18.18;49.62;99907.83;;;;-51
2021/12/06 03:01:19;;;;;;;188.29;174.26;;;;;;;18.17;49.60;99913.27;;;;-50
2021/12/06 03:04:19;;;;;;;186.20;172.48;;;;;;;18.16;49.52;99919.20;;;;-50
2021/12/06 03:07:21;;;;;;;182.62;169.11;;;;;;;18.15;49.50;99924.86;;;;-50
2021/12/06 03:10:19;;;;;;;179.61;166.29;;;;;;;18.14;49.56;99935.25;;;;-50
2021/12/06 03:13:19;;;;;;;183.83;170.24;;;;;;;18.14;49.58;99940.28;;;;-50
2021/12/06 03:16:19;;;;;;;194.70;180.25;;;;;;;18.13;49.58;99944.31;;;;-50
2021/12/06 03:19:19;;;;;;;204.53;189.27;;;;;;;18.11;49.55;99938.70;;;;-50
2021/12/06 03:22:19;;;;;;;200.33;185.54;;;;;;;18.10;49.55;99939.94;;;;-50
2021/12/06 03:25:19;;;;;;;264.17;244.13;;;;;;;18.10;49.53;99943.10;;;;-53
2021/12/06 03:28:19;;;;;;;283.13;261.68;;;;;;;18.09;49.63;99940.65;;;;-53
2021/12/06 03:31:19;;;;;;;294.60;272.08;;;;;;;18.09;49.57;99939.52;;;;-53
2021/12/06 03:34:19;;;;;;;434.50;399.05;;;;;;;18.08;49.57;99940.34;;;;-53
2021/12/06 03:37:19;;;;;;;400.51;367.69;;;;;;;18.07;49.53;99940.16;;;;-53
2021/12/06 03:40:19;;;;;;;302.28;279.07;;;;;;;18.06;49.59;99943.65;;;;-54
2021/12/06 03:43:19;;;;;;;298.28;275.25;;;;;;;18.05;49.62;99949.47;;;;-53
2021/12/06 03:46:19;;;;;;;263.51;243.66;;;;;;;18.04;49.61;99955.56;;;;-53
2021/12/06 03:49:19;;;;;;;322.73;297.65;;;;;;;18.03;49.61;99959.84;;;;-53
2021/12/06 03:52:19;;;;;;;527.23;483.07;;;;;;;18.01;49.63;99958.28;;;;-53
2021/12/06 03:55:19;;;;;;;332.72;306.65;;;;;;;18.01;49.56;99963.75;;;;-53
2021/12/06 03:58:19;;;;;;;275.25;254.32;;;;;;;18.00;49.59;99971.11;;;;-53
2021/12/06 04:01:19;;;;;;;236.21;218.61;;;;;;;17.98;49.63;99969.14;;;;-53
2021/12/06 04:04:19;;;;;;;255.23;236.13;;;;;;;17.97;49.65;99968.08;;;;-50
2021/12/06 04:07:19;;;;;;;265.09;245.15;;;;;;;17.97;49.60;99970.19;;;;-49
2021/12/06 04:10:19;;;;;;;278.60;257.48;;;;;;;17.95;49.63;99975.44;;;;-49
2021/12/06 04:13:19;;;;;;;277.57;256.51;;;;;;;17.94;49.67;99980.16;;;;-49
2021/12/06 04:16:19;;;;;;;270.72;250.33;;;;;;;17.95;49.58;99984.03;;;;-49
2021/12/06 04:19:19;;;;;;;262.75;243.02;;;;;;;17.94;49.57;99988.50;;;;-49
2021/12/06 04:22:19;;;;;;;268.83;248.44;;;;;;;17.92;49.63;99991.16;;;;-50
2021/12/06 04:25:19;;;;;;;280.97;259.48;;;;;;;17.91;49.60;99988.66;;;;-50
2021/12/06 04:28:19;;;;;;;303.45;280.03;;;;;;;17.91;49.60;99991.75;;;;-49
2021/12/06 04:31:19;;;;;;;330.37;304.37;;;;;;;17.90;49.58;99991.32;;;;-49
2021/12/06 04:34:19;;;;;;;332.99;306.68;;;;;;;17.89;49.58;99997.57;;;;-49
2021/12/06 04:37:19;;;;;;;337.74;311.02;;;;;;;17.88;49.63;100002.41;;;;-49
2021/12/06 04:40:19;;;;;;;336.01;309.43;;;;;;;17.87;49.60;100002.98;;;;-49
2021/12/06 04:43:19;;;;;;;495.48;453.44;;;;;;;17.87;49.59;100017.02;;;;-50
2021/12/06 04:46:19;;;;;;;396.47;363.85;;;;;;;17.87;49.61;100020.58;;;;-49
2021/12/06 04:49:19;;;;;;;373.81;343.67;;;;;;;17.85;49.61;100026.56;;;;-49
2021/12/06 04:52:19;;;;;;;328.61;302.80;;;;;;;17.85;49.58;100032.48;;;;-49
2021/12/06 04:55:19;;;;;;;285.73;263.86;;;;;;;17.84;49.58;100037.16;;;;-49
2021/12/06 04:58:19;;;;;;;304.81;281.13;;;;;;;17.84;49.61;100045.59;;;;-50
2021/12/06 05:01:19;;;;;;;358.46;329.69;;;;;;;17.83;49.60;100052.41;;;;-50
2021/12/06 05:04:19;;;;;;;352.84;324.36;;;;;;;17.82;49.58;100058.19;;;;-49
2021/12/06 05:07:19;;;;;;;337.61;310.62;;;;;;;17.82;49.62;100062.23;;;;-50
2021/12/06 05:10:19;;;;;;;311.07;286.67;;;;;;;17.81;49.59;100066.95;;;;-49
2021/12/06 05:13:19;;;;;;;323.21;297.61;;;;;;;17.80;49.59;100070.17;;;;-50
2021/12/06 05:16:19;;;;;;;250.69;231.65;;;;;;;17.80;49.65;100067.74;;;;-50
2021/12/06 05:19:19;;;;;;;226.09;209.13;;;;;;;17.78;49.61;100067.48;;;;-49
2021/12/06 05:22:19;;;;;;;215.83;199.65;;;;;;;17.78;49.61;100068.88;;;;-50
2021/12/06 05:25:22;;;;;;;222.86;205.91;;;;;;;17.77;49.66;100073.16;;;;-49
2021/12/06 05:28:22;;;;;;;191.99;177.68;;;;;;;17.76;49.64;100080.52;;;;-50
2021/12/06 05:31:20;;;;;;;198.42;183.57;;;;;;;17.76;49.67;100088.22;;;;-49
2021/12/06 05:34:27;;;;;;;194.58;179.99;;;;;;;17.74;49.62;100099.00;;;;-50
2021/12/06 05:37:19;;;;;;;206.70;191.16;;;;;;;17.74;49.57;100105.13;;;;-50
2021/12/06 05:40:19;;;;;;;187.77;173.77;;;;;;;17.74;49.61;100108.56;;;;-49
2021/12/06 05:43:19;;;;;;;204.66;189.36;;;;;;;17.73;49.63;100112.19;;;;-50
2021/12/06 05:46:19;;;;;;;170.29;157.73;;;;;;;17.74;49.67;100117.12;;;;-50
2021/12/06 05:49:19;;;;;;;215.12;198.94;;;;;;;17.75;49.69;100123.88;;;;-50
2021/12/06 05:52:19;;;;;;;178.94;165.55;;;;;;;17.76;49.68;100128.73;;;;-49
2021/12/06 05:55:19;;;;;;;169.42;156.91;;;;;;;17.77;49.69;100129.73;;;;-49
2021/12/06 05:58:19;;;;;;;175.11;162.23;;;;;;;17.78;49.63;100137.29;;;;-49
2021/12/06 06:01:19;;;;;;;186.29;172.38;;;;;;;17.80;49.67;100139.06;;;;-50
2021/12/06 06:04:19;;;;;;;172.33;159.54;;;;;;;17.82;49.63;100147.19;;;;-49
2021/12/06 06:07:19;;;;;;;157.60;146.07;;;;;;;17.83;49.69;100149.83;;;;-50
2021/12/06 06:10:19;;;;;;;145.51;135.05;;;;;;;17.85;49.78;100153.25;;;;-51
2021/12/06 06:13:19;;;;;;;139.07;129.09;;;;;;;17.86;49.77;100155.27;;;;-51
2021/12/06 06:16:20;;;;;;;125.87;117.02;;;;;;;17.88;49.83;100157.72;;;;-52
2021/12/06 06:19:19;;;;;;;145.59;135.21;;;;;;;17.89;49.88;100165.13;;;;-51
2021/12/06 06:22:19;;;;;;;139.57;129.67;;;;;;;17.91;49.86;100172.66;;;;-51
2021/12/06 06:25:19;;;;;;;130.25;121.01;;;;;;;17.92;49.83;100182.89;;;;-51
2021/12/06 06:28:19;;;;;;;139.33;129.48;;;;;;;17.92;49.79;100190.67;;;;-51
2021/12/06 06:31:19;;;;;;;125.83;116.98;;;;;;;17.93;49.83;100196.05;;;;-51
2021/12/06 06:34:19;;;;;;;123.65;115.03;;;;;;;17.94;49.77;100201.55;;;;-51
2021/12/06 06:37:19;;;;;;;110.14;102.43;;;;;;;17.94;49.81;100202.69;;;;-51
2021/12/06 06:40:19;;;;;;;109.24;101.51;;;;;;;17.95;49.92;100209.89;;;;-51
2021/12/06 06:43:19;;;;;;;118.17;109.89;;;;;;;17.95;49.86;100209.44;;;;-52
2021/12/06 06:46:19;;;;;;;109.47;101.81;;;;;;;17.95;49.78;100213.00;;;;-51
2021/12/06 06:49:19;;;;;;;119.89;111.37;;;;;;;17.96;49.69;100212.59;;;;-52
2021/12/06 06:52:19;;;;;;;87.35;81.23;;;;;;;17.97;49.69;100212.91;;;;-51
2021/12/06 06:55:19;;;;;;;97.85;90.92;;;;;;;17.97;49.74;100224.19;;;;-51
2021/12/06 06:58:19;;;;;;;89.90;83.59;;;;;;;17.97;49.70;100226.38;;;;-51
2021/12/06 07:01:19;;;;;;;110.41;102.67;;;;;;;17.97;49.68;100229.21;;;;-51
2021/12/06 07:04:19;;;;;;;113.83;105.97;;;;;;;17.98;49.68;100232.72;;;;-51
2021/12/06 07:07:19;;;;;;;119.37;110.78;;;;;;;17.89;48.51;100235.48;;;;-53
2021/12/06 07:10:19;;;;;;;105.35;97.81;;;;;;;17.79;47.62;100236.08;;;;-53
2021/12/06 07:13:19;;;;;;;117.81;109.25;;;;;;;17.72;47.12;100244.27;;;;-52
2021/12/06 07:16:19;;;;;;;104.13;96.53;;;;;;;17.65;46.92;100246.23;;;;-52
2021/12/06 07:19:19;;;;;;;87.46;81.03;;;;;;;17.60;46.67;100249.84;;;;-52
2021/12/06 07:22:19;;;;;;;66.98;61.93;;;;;;;17.56;46.50;100248.41;;;;-53
2021/12/06 07:25:19;;;;;;;58.87;54.35;;;;;;;17.51;46.25;100252.64;;;;-52
2021/12/06 07:28:19;;;;;;;35.45;32.63;;;;;;;17.46;46.10;100252.92;;;;-52
2021/12/06 07:31:19;;;;;;;34.53;31.73;;;;;;;17.42;45.93;100256.76;;;;-52
2021/12/06 07:34:19;;;;;;;27.29;25.00;;;;;;;17.37;45.80;100256.30;;;;-51
2021/12/06 07:37:19;;;;;;;32.59;29.94;;;;;;;17.44;46.70;100261.16;;;;-51
2021/12/06 07:40:19;;;;;;;26.57;24.27;;;;;;;17.48;46.98;100268.33;;;;-51
2021/12/06 07:43:19;;;;;;;25.47;23.41;;;;;;;17.51;47.25;100268.67;;;;-51
2021/12/06 07:46:19;;;;;;;25.87;23.45;;;;;;;17.54;47.40;100274.89;;;;-51
2021/12/06 07:49:19;;;;;;;31.01;28.56;;;;;;;17.56;47.49;100279.05;;;;-51
2021/12/06 07:52:19;;;;;;;15.90;14.54;;;;;;;17.58;47.56;100281.25;;;;-51
2021/12/06 07:55:19;;;;;;;20.45;18.67;;;;;;;17.59;47.69;100284.81;;;;-51
2021/12/06 07:58:19;;;;;;;15.09;13.83;;;;;;;17.61;47.77;100290.02;;;;-52
2021/12/06 08:01:19;;;;;;;17.25;15.84;;;;;;;17.61;47.84;100289.94;;;;-51
2021/12/06 08:04:19;;;;;;;22.52;20.73;;;;;;;17.61;47.86;100293.10;;;;-51
2021/12/06 08:07:19;;;;;;;23.15;21.34;;;;;;;17.62;47.92;100289.94;;;;-50
2021/12/06 08:10:19;;;;;;;18.47;17.05;;;;;;;17.62;47.99;100287.78;;;;-50
2021/12/06 08:13:19;;;;;;;22.72;20.81;;;;;;;17.63;48.04;100293.12;;;;-49
2021/12/06 08:16:19;;;;;;;24.27;22.34;;;;;;;17.63;48.08;100293.12;;;;-51
2021/12/06 08:19:19;;;;;;;26.75;24.71;;;;;;;17.62;48.15;100303.66;;;;-50
2021/12/06 08:22:19;;;;;;;25.71;23.60;;;;;;;17.63;48.18;100311.68;;;;-50
2021/12/06 08:25:19;;;;;;;23.63;21.75;;;;;;;17.63;48.23;100311.60;;;;-50
2021/12/06 08:28:19;;;;;;;26.89;24.81;;;;;;;17.63;48.26;100312.57;;;;-50
2021/12/06 08:31:19;;;;;;;25.37;23.35;;;;;;;17.63;48.27;100312.81;;;;-50
2021/12/06 08:34:19;;;;;;;20.07;18.45;;;;;;;17.63;48.43;100309.58;;;;-56
2021/12/06 08:37:19;;;;;;;24.31;22.43;;;;;;;17.63;48.49;100312.73;;;;-48
2021/12/06 08:40:19;;;;;;;19.74;18.17;;;;;;;17.64;48.55;100312.92;;;;-45
2021/12/06 08:43:19;;;;;;;24.74;22.81;;;;;;;17.67;48.52;100313.34;;;;-47
2021/12/06 08:46:19;;;;;;;23.59;21.71;;;;;;;17.73;48.67;100310.17;;;;-44
2021/12/06 08:49:19;;;;;;;22.09;19.83;;;;;;;17.79;48.95;100314.95;;;;-44
2021/12/06 08:52:19;;;;;;;19.84;18.29;;;;;;;17.85;49.24;100320.16;;;;-49
2021/12/06 08:55:19;;;;;;;21.41;19.75;;;;;;;17.93;49.38;100321.67;;;;-52
2021/12/06 08:58:19;;;;;;;18.85;17.37;;;;;;;17.98;49.34;100324.34;;;;-53
2021/12/06 09:01:19;;;;;;;17.98;16.55;;;;;;;18.06;49.35;100330.51;;;;-48
2021/12/06 09:04:19;;;;;;;21.65;19.99;;;;;;;18.11;49.08;100331.52;;;;-50
2021/12/06 09:07:19;;;;;;;18.77;17.03;;;;;;;18.16;49.29;100330.93;;;;-46
2021/12/06 09:10:19;;;;;;;21.33;19.56;;;;;;;18.23;49.42;100334.72;;;;-47
2021/12/06 09:13:19;;;;;;;21.58;19.62;;;;;;;18.27;49.47;100333.78;;;;-51
2021/12/06 09:16:19;;;;;;;19.51;18.03;;;;;;;18.32;49.51;100328.49;;;;-51
2021/12/06 09:19:19;;;;;;;20.41;18.73;;;;;;;18.38;49.57;100332.49;;;;-49
2021/12/06 09:22:19;;;;;;;20.45;18.89;;;;;;;18.46;49.79;100327.78;;;;-50
2021/12/06 09:25:19;;;;;;;22.31;20.53;;;;;;;18.52;49.47;100325.97;;;;-47
2021/12/06 09:28:19;;;;;;;20.94;19.32;;;;;;;18.54;49.41;100328.42;;;;-49
2021/12/06 09:31:19;;;;;;;17.57;16.13;;;;;;;18.58;49.53;100323.75;;;;-49
2021/12/06 09:34:19;;;;;;;21.76;20.10;;;;;;;18.62;49.48;100323.38;;;;-50
2021/12/06 09:37:19;;;;;;;20.42;18.85;;;;;;;18.66;49.30;100323.73;;;;-48
2021/12/06 09:40:18;;;;;;;25.27;23.34;;;;;;;18.68;49.29;100324.07;;;;-47
2021/12/06 09:43:19;;;;;;;19.54;17.95;;;;;;;18.74;49.69;100317.86;;;;-53
2021/12/06 09:46:19;;;;;;;21.40;19.65;;;;;;;18.78;49.38;100315.76;;;;-49
2021/12/06 09:49:19;;;;;;;23.79;21.90;;;;;;;18.79;49.07;100316.05;;;;-49
2021/12/06 09:52:19;;;;;;;20.48;18.90;;;;;;;18.79;49.05;100317.43;;;;-49
2021/12/06 09:55:18;;;;;;;21.81;20.21;;;;;;;18.81;49.04;100317.77;;;;-49
2021/12/06 09:58:19;;;;;;;18.73;17.11;;;;;;;18.83;49.03;100318.92;;;;-49
2021/12/06 10:01:20;;;;;;;17.74;16.04;;;;;;;18.90;49.33;100321.06;;;;-50
2021/12/06 10:04:19;;;;;;;19.07;17.54;;;;;;;18.94;49.61;100325.08;;;;-47
2021/12/06 10:07:19;;;;;;;27.49;25.42;;;;;;;19.02;49.59;100324.31;;;;-53
2021/12/06 10:10:18;;;;;;;21.05;19.44;;;;;;;19.05;49.52;100326.05;;;;-63
2021/12/06 10:13:19;;;;;;;20.69;19.07;;;;;;;19.07;49.48;100330.21;;;;-61
2021/12/06 10:16:19;;;;;;;25.83;23.89;;;;;;;19.11;49.53;100335.65;;;;-60
2021/12/06 10:19:20;;;;;;;21.82;20.08;;;;;;;19.13;49.47;100337.05;;;;-60
2021/12/06 10:22:19;;;;;;;27.51;25.33;;;;;;;19.16;49.16;100334.97;;;;-65
2021/12/06 10:25:18;;;;;;;21.59;19.78;;;;;;;19.20;49.37;100338.64;;;;-66
2021/12/06 10:28:19;;;;;;;20.74;18.95;;;;;;;19.22;49.41;100340.45;;;;-60
2021/12/06 10:31:19;;;;;;;26.08;24.17;;;;;;;19.24;49.29;100339.41;;;;-66
2021/12/06 10:34:19;;;;;;;27.01;25.00;;;;;;;19.25;49.04;100335.41;;;;-63
2021/12/06 10:37:19;;;;;;;28.26;26.09;;;;;;;19.26;49.24;100331.37;;;;-67
2021/12/06 10:40:18;;;;;;;25.01;23.05;;;;;;;19.31;49.36;100326.59;;;;-59
2021/12/06 10:43:19;;;;;;;22.97;21.05;;;;;;;19.33;49.37;100320.17;;;;-54
2021/12/06 10:46:19;;;;;;;23.35;21.62;;;;;;;19.36;49.54;100319.80;;;;-60
2021/12/06 10:49:19;;;;;;;25.28;23.44;;;;;;;19.42;49.44;100315.73;;;;-52
2021/12/06 10:52:19;;;;;;;26.67;24.65;;;;;;;19.41;49.42;100310.88;;;;-60
2021/12/06 10:55:19;;;;;;;23.91;22.05;;;;;;;19.43;49.41;100310.07;;;;-61
2021/12/06 10:58:19;;;;;;;28.37;26.28;;;;;;;19.44;49.43;100307.78;;;;-63
2021/12/06 11:01:19;;;;;;;26.05;23.97;;;;;;;19.45;49.39;100299.19;;;;-62
2021/12/06 11:04:19;;;;;;;32.69;30.28;;;;;;;19.49;49.50;100308.95;;;;-62
2021/12/06 11:07:19;;;;;;;31.29;28.99;;;;;;;19.49;49.24;100303.44;;;;-59
2021/12/06 11:10:19;;;;;;;22.68;20.94;;;;;;;19.50;49.37;100303.66;;;;-60
2021/12/06 11:13:20;;;;;;;22.47;20.69;;;;;;;19.51;49.21;100305.63;;;;-57
2021/12/06 11:16:19;;;;;;;23.66;21.91;;;;;;;19.52;49.23;100305.30;;;;-56
2021/12/06 11:19:19;;;;;;;22.85;21.16;;;;;;;19.55;49.27;100304.27;;;;-51
2021/12/06 11:22:19;;;;;;;26.53;24.54;;;;;;;19.57;49.22;100300.45;;;;-53
2021/12/06 11:25:19;;;;;;;21.47;19.76;;;;;;;19.58;49.17;100303.86;;;;-54
2021/12/06 11:28:18;;;;;;;27.63;25.51;;;;;;;19.58;49.21;100305.41;;;;-58
2021/12/06 11:31:19;;;;;;;26.21;24.25;;;;;;;19.61;49.30;100297.11;;;;-51
2021/12/06 11:34:19;;;;;;;26.95;24.99;;;;;;;19.63;49.29;100288.28;;;;-51
2021/12/06 11:42:19;;;;;;;32.84;30.47;;;;;;;19.69;49.06;100284.37;;;;-52
2021/12/06 11:45:19;;;;;;;33.13;30.66;;;;;;;19.72;49.10;100290.12;;;;-55
2021/12/06 11:48:19;;;;;;;26.25;24.17;;;;;;;19.71;48.85;100288.23;;;;-54
2021/12/06 11:51:19;;;;;;;27.71;25.58;;;;;;;19.70;48.78;100285.13;;;;-53
2021/12/06 11:54:19;;;;;;;30.79;28.53;;;;;;;19.68;48.75;100283.89;;;;-55
2021/12/06 11:57:18;;;;;;;22.60;20.81;;;;;;;19.68;48.72;100283.65;;;;-53
2021/12/06 12:00:19;;;;;;;23.22;21.49;;;;;;;19.67;48.79;100279.52;;;;-54
2021/12/06 12:03:19;;;;;;;26.34;24.21;;;;;;;19.71;48.97;100282.30;;;;-53
2021/12/06 12:06:19;;;;;;;28.93;26.30;;;;;;;19.75;49.02;100280.68;;;;-49
2021/12/06 12:12:30;;;;;;;21.54;19.41;;;;;;;19.80;48.84;100281.60;;;;-53
2021/12/06 12:15:24;;;;;;;25.64;23.45;;;;;;;19.78;48.72;100280.55;;;;-51
2021/12/06 12:18:25;;;;;;;36.60;33.46;;;;;;;19.79;48.76;100289.16;;;;-51
2021/12/06 12:21:19;;;;;;;39.64;36.53;;;;;;;19.79;48.73;100291.18;;;;-51
2021/12/06 12:24:19;;;;;;;32.23;29.61;;;;;;;19.79;48.65;100287.36;;;;-51
2021/12/06 12:27:26;;;;;;;30.69;28.43;;;;;;;19.79;48.75;100291.75;;;;-65
2021/12/06 12:30:19;;;;;;;33.79;31.29;;;;;;;19.79;48.67;100297.20;;;;-64
2021/12/06 12:33:19;;;;;;;37.99;35.26;;;;;;;19.79;48.67;100291.02;;;;-55
2021/12/06 12:36:34;;;;;;;40.82;37.63;;;;;;;19.79;48.70;100288.09;;;;-52
2021/12/06 12:39:19;;;;;;;38.51;35.53;;;;;;;19.80;48.67;100289.73;;;;-53
2021/12/06 12:42:19;;;;;;;34.16;31.40;;;;;;;19.80;48.64;100287.13;;;;-52
2021/12/06 12:45:19;;;;;;;29.29;26.89;;;;;;;19.81;48.69;100284.92;;;;-51
2021/12/06 12:48:22;;;;;;;38.45;35.35;;;;;;;19.81;48.63;100274.59;;;;-51
2021/12/06 12:51:19;;;;;;;44.31;41.10;;;;;;;19.82;48.65;100272.91;;;;-56
2021/12/06 12:54:19;;;;;;;32.67;30.33;;;;;;;19.82;48.67;100272.25;;;;-56
2021/12/06 12:57:19;;;;;;;49.61;46.05;;;;;;;19.82;48.68;100270.23;;;;-56
2021/12/06 13:00:19;;;;;;;40.93;37.97;;;;;;;19.83;48.66;100271.19;;;;-56
2021/12/06 13:03:19;;;;;;;44.89;41.61;;;;;;;19.83;48.62;100271.44;;;;-56
2021/12/06 13:06:19;;;;;;;46.69;43.31;;;;;;;19.84;48.66;100269.17;;;;-56
2021/12/06 13:09:19;;;;;;;40.93;37.80;;;;;;;19.85;48.67;100260.95;;;;-51
2021/12/06 13:12:22;;;;;;;58.14;53.53;;;;;;;19.86;48.67;100257.14;;;;-51
2021/12/06 13:15:20;;;;;;;53.01;49.18;;;;;;;19.87;48.68;100249.48;;;;-51
2021/12/06 13:18:28;;;;;;;59.43;55.07;;;;;;;19.91;49.13;100245.91;;;;-56
2021/12/06 13:21:19;;;;;;;62.65;58.13;;;;;;;19.93;49.19;100244.53;;;;-55
2021/12/06 13:24:19;;;;;;;65.39;60.68;;;;;;;19.98;49.12;100245.83;;;;-52
2021/12/06 13:27:19;;;;;;;54.08;50.18;;;;;;;20.01;49.00;100246.41;;;;-52
2021/12/06 13:30:21;;;;;;;56.60;52.16;;;;;;;20.06;49.22;100244.53;;;;-54
2021/12/06 13:33:19;;;;;;;70.77;60.49;;;;;;;19.95;47.08;100243.87;;;;-50
2021/12/06 13:36:19;;;;;;;79.31;73.33;;;;;;;19.98;47.65;100241.27;;;;-53
2021/12/06 13:39:19;;;;;;;80.02;73.53;;;;;;;20.05;48.05;100235.44;;;;-54
2021/12/06 13:42:19;;;;;;;85.03;78.69;;;;;;;20.05;48.02;100229.98;;;;-54
2021/12/06 13:45:19;;;;;;;84.26;78.13;;;;;;;20.05;47.90;100231.29;;;;-54
2021/12/06 13:48:19;;;;;;;81.21;75.37;;;;;;;20.05;47.93;100228.52;;;;-54
2021/12/06 13:51:18;;;;;;;74.06;68.71;;;;;;;20.06;48.03;100229.56;;;;-54
2021/12/06 13:54:19;;;;;;;81.60;75.63;;;;;;;20.06;47.92;100222.81;;;;-54
2021/12/06 13:57:21;;;;;;;74.91;69.55;;;;;;;20.06;47.97;100221.83;;;;-54
2021/12/06 14:00:23;;;;;;;94.38;87.63;;;;;;;20.07;47.94;100224.78;;;;-54
2021/12/06 14:03:19;;;;;;;65.78;61.01;;;;;;;20.08;47.96;100224.53;;;;-54
2021/12/06 14:06:21;;;;;;;61.91;57.48;;;;;;;20.07;47.95;100224.95;;;;-55
2021/12/06 14:09:19;;;;;;;74.89;69.51;;;;;;;20.08;48.00;100229.89;;;;-54
2021/12/06 14:12:19;;;;;;;74.17;68.80;;;;;;;20.09;47.79;100226.17;;;;-54
2021/12/06 14:15:25;;;;;;;101.62;94.13;;;;;;;20.13;48.01;100230.23;;;;-50
2021/12/06 14:18:19;;;;;;;90.77;84.32;;;;;;;20.13;48.05;100230.13;;;;-51
2021/12/06 14:21:19;;;;;;;113.99;105.77;;;;;;;20.13;48.14;100232.67;;;;-52
2021/12/06 14:24:19;;;;;;;83.57;77.57;;;;;;;20.14;48.12;100238.84;;;;-51
2021/12/06 14:27:19;;;;;;;113.21;105.17;;;;;;;20.15;48.11;100245.83;;;;-49
2021/12/06 14:30:19;;;;;;;108.73;101.11;;;;;;;20.15;48.12;100242.36;;;;-49
2021/12/06 14:33:19;;;;;;;84.67;78.54;;;;;;;20.16;48.18;100245.12;;;;-49
2021/12/06 14:36:19;;;;;;;106.37;98.85;;;;;;;20.16;48.21;100251.87;;;;-49
2021/12/06 14:39:19;;;;;;;116.63;108.20;;;;;;;20.17;48.20;100250.22;;;;-49
2021/12/06 14:42:19;;;;;;;92.56;86.00;;;;;;;20.17;48.19;100254.48;;;;-49
2021/12/06 14:45:19;;;;;;;75.05;69.65;;;;;;;20.17;48.22;100251.22;;;;-49
2021/12/06 14:48:23;;;;;;;86.42;80.27;;;;;;;20.19;48.26;100260.23;;;;-49
2021/12/06 14:51:19;;;;;;;74.41;69.07;;;;;;;20.19;48.26;100253.91;;;;-49
2021/12/06 14:54:24;;;;;;;76.24;70.83;;;;;;;20.20;48.31;100260.41;;;;-49
2021/12/06 14:57:19;;;;;;;73.87;68.57;;;;;;;20.21;48.29;100262.11;;;;-49
2021/12/06 15:00:19;;;;;;;71.23;66.11;;;;;;;20.21;48.33;100262.44;;;;-49
2021/12/06 15:03:19;;;;;;;96.44;89.61;;;;;;;20.22;48.32;100265.05;;;;-49
2021/12/06 15:06:19;;;;;;;107.07;99.49;;;;;;;20.22;48.31;100266.27;;;;-49
2021/12/06 15:09:19;;;;;;;106.21;98.70;;;;;;;20.23;48.37;100265.69;;;;-49
2021/12/06 15:12:19;;;;;;;128.51;119.04;;;;;;;20.27;48.28;100264.00;;;;-51
2021/12/06 15:15:19;;;;;;;128.26;119.05;;;;;;;20.27;47.51;100263.02;;;;-59
2021/12/06 15:18:19;;;;;;;122.12;113.07;;;;;;;20.28;47.77;100264.81;;;;-59
2021/12/06 15:21:19;;;;;;;135.71;125.43;;;;;;;20.32;48.28;100272.05;;;;-59
2021/12/06 15:24:19;;;;;;;121.53;112.95;;;;;;;20.34;48.23;100268.39;;;;-57
2021/12/06 15:27:19;;;;;;;121.97;112.95;;;;;;;20.36;48.31;100268.64;;;;-51
2021/12/06 15:30:19;;;;;;;132.40;122.69;;;;;;;20.34;47.34;100262.61;;;;-52
2021/12/06 15:33:19;;;;;;;150.93;139.82;;;;;;;20.36;47.74;100254.80;;;;-54
2021/12/06 15:36:19;;;;;;;107.69;99.94;;;;;;;20.38;47.96;100247.80;;;;-60
2021/12/06 15:39:19;;;;;;;151.40;140.27;;;;;;;20.41;48.07;100238.91;;;;-62
2021/12/06 15:42:21;;;;;;;136.97;126.94;;;;;;;20.40;47.95;100235.34;;;;-59
2021/12/06 15:45:20;;;;;;;141.43;131.07;;;;;;;20.40;48.03;100232.17;;;;-52
2021/12/06 15:48:19;;;;;;;145.19;134.50;;;;;;;20.39;47.61;100226.55;;;;-48
2021/12/06 15:51:19;;;;;;;167.43;154.77;;;;;;;20.33;45.89;100224.27;;;;-48
2021/12/06 15:54:19;;;;;;;167.99;155.45;;;;;;;20.34;46.77;100225.75;;;;-49
2021/12/06 15:57:19;;;;;;;168.80;156.19;;;;;;;20.33;46.97;100217.75;;;;-49
2021/12/06 16:00:19;;;;;;;164.45;152.27;;;;;;;20.34;47.22;100215.98;;;;-49
2021/12/06 16:03:19;;;;;;;159.47;147.71;;;;;;;20.32;47.27;100213.29;;;;-49
2021/12/06 16:06:19;;;;;;;172.53;159.75;;;;;;;20.32;47.40;100201.98;;;;-54
2021/12/06 16:09:19;;;;;;;155.36;143.88;;;;;;;20.32;47.45;100198.33;;;;-54
2021/12/06 16:12:18;;;;;;;138.16;128.05;;;;;;;20.32;47.53;100196.70;;;;-54
2021/12/06 16:15:19;;;;;;;196.33;181.63;;;;;;;20.32;47.53;100185.95;;;;-55
2021/12/06 16:18:19;;;;;;;190.73;176.49;;;;;;;20.33;47.56;100184.39;;;;-54
2021/12/06 16:21:18;;;;;;;221.82;205.33;;;;;;;20.33;47.57;100180.00;;;;-54
2021/12/06 16:24:19;;;;;;;215.09;199.01;;;;;;;20.33;47.57;100177.15;;;;-54
2021/12/06 16:27:19;;;;;;;204.96;189.75;;;;;;;20.34;47.62;100173.83;;;;-54
2021/12/06 16:30:18;;;;;;;168.85;156.45;;;;;;;20.34;47.61;100175.20;;;;-54
2021/12/06 16:33:19;;;;;;;183.65;170.02;;;;;;;20.34;47.63;100170.48;;;;-54